Time;durP1;ratioP1;P1;durP2;ratioP2;P2;SDS_P1;SDS_P2;PMS_P1;PMS_P2;Temp;Humidity;BMP_temperature;BMP_pressure;BME280_temperature;BME280_humidity;BME280_pressure;Samples;Min_cycle;Max_cycle;Signal;HPM_P1;HPM_P2
2022/04/02 00:00:16;;;;;;;12.00;6.10;;;;;;;14.01;98.33;97843.69;5112387;28;20191;-68
2022/04/02 00:02:42;;;;;;;14.40;5.20;;;;;;;14.03;99.16;97847.69;5112604;28;20314;-68
2022/04/02 00:05:10;;;;;;;14.93;6.40;;;;;;;13.97;98.58;97843.38;5112537;28;20194;-68
2022/04/02 00:07:38;;;;;;;15.17;5.43;;;;;;;13.95;98.80;97845.50;5112511;28;20226;-68
2022/04/02 00:10:07;;;;;;;7.67;5.57;;;;;;;13.99;99.20;97840.44;5113617;28;20632;-68
2022/04/02 00:12:33;;;;;;;8.93;5.40;;;;;;;14.00;98.95;97832.19;5112466;28;20237;-67
2022/04/02 00:15:00;;;;;;;13.53;5.80;;;;;;;13.96;98.17;97825.75;5112686;28;20187;-68
2022/04/02 00:17:27;;;;;;;11.73;6.00;;;;;;;14.06;97.04;97835.69;5112858;28;20255;-68
2022/04/02 00:19:54;;;;;;;15.20;6.27;;;;;;;14.02;96.98;97832.75;5112926;28;20186;-67
2022/04/02 00:22:20;;;;;;;13.20;6.03;;;;;;;13.96;96.59;97828.41;5113251;28;20270;-67
2022/04/02 00:24:48;;;;;;;12.20;5.97;;;;;;;13.88;97.61;97828.91;5112115;28;20240;-67
2022/04/02 00:27:15;;;;;;;15.83;6.40;;;;;;;13.90;98.21;97834.81;5112858;28;20252;-68
2022/04/02 00:29:42;;;;;;;20.70;6.20;;;;;;;13.96;98.09;97841.75;5112879;28;20255;-68
2022/04/02 00:32:09;;;;;;;12.07;5.83;;;;;;;14.05;97.36;97839.44;5112257;28;20255;-68
2022/04/02 00:34:36;;;;;;;12.40;5.20;;;;;;;14.11;97.42;97833.03;5113042;28;20186;-68
2022/04/02 00:37:03;;;;;;;8.37;5.70;;;;;;;14.16;96.57;97838.41;5112800;28;20243;-68
2022/04/02 00:39:30;;;;;;;10.27;5.57;;;;;;;14.20;95.89;97826.97;5112484;28;20194;-68
2022/04/02 00:41:58;;;;;;;13.03;5.33;;;;;;;14.08;95.65;97790.84;5112373;28;20313;-68
2022/04/02 00:44:26;;;;;;;12.37;5.60;;;;;;;14.02;95.96;97818.59;5112433;28;20428;-68
2022/04/02 00:46:53;;;;;;;15.27;5.47;;;;;;;14.01;96.06;97833.00;5112119;28;20190;-67
2022/04/02 00:49:21;;;;;;;8.67;4.70;;;;;;;13.99;96.37;97830.59;5112407;28;20186;-68
2022/04/02 00:51:51;;;;;;;11.43;5.63;;;;;;;13.97;96.69;97832.69;5112060;28;20201;-68
2022/04/02 00:54:19;;;;;;;10.10;5.40;;;;;;;14.02;96.97;97819.41;5113201;28;20612;-68
2022/04/02 00:56:47;;;;;;;10.23;5.00;;;;;;;13.97;97.19;97816.69;5112044;28;20698;-68
2022/04/02 00:59:15;;;;;;;15.27;5.37;;;;;;;14.03;97.11;97814.84;5112279;28;20191;-68
2022/04/02 01:01:44;;;;;;;7.67;5.57;;;;;;;14.03;97.22;97810.31;5112196;28;20248;-68
2022/04/02 01:04:11;;;;;;;18.57;5.80;;;;;;;14.04;96.82;97813.78;5111956;28;20193;-68
2022/04/02 01:06:38;;;;;;;10.53;4.80;;;;;;;14.07;97.18;97810.59;5112283;28;20323;-68
2022/04/02 01:09:05;;;;;;;13.53;4.63;;;;;;;14.11;97.21;97814.34;5111923;28;20194;-68
2022/04/02 01:11:39;;;;;;;12.50;4.73;;;;;;;14.11;96.69;97812.50;5112206;28;20198;-68
2022/04/02 01:14:07;;;;;;;12.30;5.43;;;;;;;14.12;96.67;97811.44;5111845;28;20662;-68
2022/04/02 01:16:35;;;;;;;11.67;5.20;;;;;;;14.06;96.36;97825.81;5111857;28;20277;-68
2022/04/02 01:19:03;;;;;;;10.23;4.50;;;;;;;14.03;96.97;97828.19;5112964;28;20186;-68
2022/04/02 01:21:30;;;;;;;13.17;4.20;;;;;;;13.94;96.77;97819.06;5111754;28;20277;-68
2022/04/02 01:24:00;;;;;;;18.23;5.13;;;;;;;13.95;97.34;97818.81;5112460;28;20744;-68
2022/04/02 01:26:27;;;;;;;11.40;5.30;;;;;;;13.97;96.72;97827.34;5111745;28;20195;-68
2022/04/02 01:28:56;;;;;;;10.67;4.67;;;;;;;13.96;97.10;97825.75;5112060;28;20190;-68
2022/04/02 01:31:24;;;;;;;9.87;4.87;;;;;;;13.99;96.93;97822.56;5111696;28;20195;-68
2022/04/02 01:33:51;;;;;;;9.67;4.97;;;;;;;13.97;97.37;97829.25;5112269;28;20199;-68
2022/04/02 01:36:19;;;;;;;8.40;5.03;;;;;;;13.92;97.30;97824.66;5112001;28;20249;-68
2022/04/02 01:38:46;;;;;;;9.57;4.80;;;;;;;13.87;97.12;97821.97;5115603;28;20752;-68
2022/04/02 01:41:15;;;;;;;12.80;5.23;;;;;;;13.82;97.35;97819.28;5115185;28;20190;-68
2022/04/02 01:43:42;;;;;;;10.10;5.27;;;;;;;13.76;97.34;97825.63;5116286;28;20218;-68
2022/04/02 01:46:09;;;;;;;7.83;5.23;;;;;;;13.72;98.01;97819.19;5115776;28;20193;-68
2022/04/02 01:48:36;;;;;;;10.87;5.37;;;;;;;13.65;97.94;97833.81;5115438;28;20247;-68
2022/04/02 01:51:02;;;;;;;7.37;5.50;;;;;;;13.64;98.31;97822.31;5116234;28;20334;-68
2022/04/02 01:53:30;;;;;;;8.63;4.83;;;;;;;13.67;98.39;97816.50;5115306;28;20195;-68
2022/04/02 01:55:57;;;;;;;9.10;5.20;;;;;;;13.71;97.99;97822.91;5115831;28;20199;-68
2022/04/02 01:58:25;;;;;;;8.27;5.30;;;;;;;13.73;97.49;97828.00;5114963;28;20199;-68
2022/04/02 02:00:52;;;;;;;9.53;5.67;;;;;;;13.69;97.51;97835.69;5114870;28;20194;-68
2022/04/02 02:03:18;;;;;;;7.63;4.90;;;;;;;13.61;96.90;97849.53;5115047;28;20279;-68
2022/04/02 02:05:45;;;;;;;13.73;5.57;;;;;;;13.58;96.53;97842.03;5114795;28;20194;-68
2022/04/02 02:08:13;;;;;;;9.27;5.00;;;;;;;13.57;95.97;97832.44;5115581;28;20251;-69
2022/04/02 02:10:40;;;;;;;10.17;5.00;;;;;;;13.63;95.98;97831.41;5115260;28;20195;-69
2022/04/02 02:13:06;;;;;;;11.90;4.93;;;;;;;13.68;95.20;97836.75;5114685;28;20198;-68
2022/04/02 02:15:34;;;;;;;15.00;5.10;;;;;;;13.71;94.93;97848.78;5114611;28;20194;-68
2022/04/02 02:18:01;;;;;;;7.20;5.10;;;;;;;13.59;94.56;97851.63;5115097;28;20226;-69
2022/04/02 02:20:28;;;;;;;15.27;5.53;;;;;;;13.60;94.34;97860.47;5115304;28;20187;-68
2022/04/02 02:22:54;;;;;;;14.30;5.00;;;;;;;13.66;94.34;97867.44;5114706;28;20230;-68
2022/04/02 02:25:21;;;;;;;12.57;5.03;;;;;;;13.68;94.34;97871.44;5114387;28;20191;-69
2022/04/02 02:27:48;;;;;;;13.23;5.40;;;;;;;13.67;93.73;97869.84;5114361;28;20194;-68
2022/04/02 02:30:17;;;;;;;13.83;5.77;;;;;;;13.70;93.76;97874.69;5114664;28;20187;-68
2022/04/02 02:32:46;;;;;;;13.47;5.07;;;;;;;13.69;93.83;97878.38;5114566;28;20250;-69
2022/04/02 02:38:06;;;;;;;12.17;5.80;;;;;;;13.67;93.57;97872.50;5114618;28;20550;-67
2022/04/02 02:40:33;;;;;;;12.37;5.73;;;;;;;13.63;93.71;97890.09;5114431;28;20194;-67
2022/04/02 02:43:00;;;;;;;7.90;5.77;;;;;;;13.52;94.06;97882.25;5114815;28;20226;-67
2022/04/02 02:45:27;;;;;;;7.47;4.43;;;;;;;13.50;94.68;97876.38;5114281;28;20191;-68
2022/04/02 02:47:55;;;;;;;10.13;5.73;;;;;;;13.49;94.40;97890.75;5113845;28;20195;-67
2022/04/02 02:50:22;;;;;;;16.90;7.47;;;;;;;13.18;94.47;97903.00;5114473;28;20241;-68
2022/04/02 02:52:49;;;;;;;6.97;5.00;;;;;;;13.16;94.93;97905.13;5114183;28;20256;-68
2022/04/02 02:55:16;;;;;;;10.20;5.07;;;;;;;13.14;94.73;97893.88;5113815;28;20194;-68
2022/04/02 02:57:44;;;;;;;8.53;4.63;;;;;;;13.15;93.53;97890.16;5113750;28;20195;-68
2022/04/02 03:00:13;;;;;;;7.30;5.70;;;;;;;13.12;92.83;97897.88;5114590;28;20190;-67
2022/04/02 03:02:40;;;;;;;10.50;5.63;;;;;;;13.06;93.20;97899.66;5113830;28;20218;-67
2022/04/02 03:05:11;;;;;;;10.77;4.80;;;;;;;12.93;92.97;97894.69;5113594;28;20620;-68
2022/04/02 03:07:39;;;;;;;6.97;3.83;;;;;;;12.86;93.07;97896.75;5114457;28;20210;-67
2022/04/02 03:10:07;;;;;;;10.27;4.90;;;;;;;12.88;93.05;97902.66;5113785;28;20190;-67
2022/04/02 03:12:34;;;;;;;8.47;4.50;;;;;;;12.95;92.85;97908.56;5113776;28;20191;-68
2022/04/02 03:15:02;;;;;;;6.57;4.37;;;;;;;12.79;93.14;97906.81;5114487;28;20612;-67
2022/04/02 03:17:30;;;;;;;10.43;4.37;;;;;;;12.84;92.81;97914.84;5113308;28;20676;-67
2022/04/02 03:19:57;;;;;;;8.27;4.43;;;;;;;12.81;93.44;97918.00;5113639;28;20273;-68
2022/04/02 03:22:27;;;;;;;5.67;5.03;;;;;;;12.82;93.24;97916.16;5113359;28;20592;-67
2022/04/02 03:24:54;;;;;;;6.93;4.13;;;;;;;12.79;92.48;97914.81;5113519;28;20198;-67
2022/04/02 03:27:21;;;;;;;8.60;4.80;;;;;;;12.83;92.31;97926.53;5113188;28;20194;-67
2022/04/02 03:29:48;;;;;;;10.63;4.47;;;;;;;12.80;92.44;97932.38;5113397;28;20190;-68
2022/04/02 03:32:15;;;;;;;7.53;4.23;;;;;;;12.77;91.55;97926.72;5113642;28;20195;-67
2022/04/02 03:34:41;;;;;;;7.37;4.93;;;;;;;12.76;92.66;97925.13;5113381;28;20198;-68
2022/04/02 03:37:08;;;;;;;6.93;5.70;;;;;;;12.82;92.88;97935.59;5114145;28;20191;-69
2022/04/02 03:39:36;;;;;;;9.70;4.97;;;;;;;12.85;92.34;97940.44;5113255;28;20195;-69
2022/04/02 03:42:04;;;;;;;8.47;5.27;;;;;;;12.82;91.86;97940.13;5113236;28;20190;-67
2022/04/02 03:44:30;;;;;;;8.47;5.27;;;;;;;12.83;92.28;97957.72;5112804;28;20769;-68
2022/04/02 03:47:09;;;;;;;8.10;4.77;;;;;;;12.77;91.43;97959.53;5112845;28;20663;-67
2022/04/02 03:49:36;;;;;;;9.23;4.93;;;;;;;12.70;92.61;97972.19;5113185;28;20186;-68
2022/04/02 03:52:03;;;;;;;9.40;5.17;;;;;;;12.73;92.62;97993.03;5112784;28;20194;-69
2022/04/02 03:54:29;;;;;;;10.23;5.40;;;;;;;12.75;92.81;97995.47;5112714;28;20723;-68
2022/04/02 03:56:57;;;;;;;15.40;6.17;;;;;;;12.71;92.81;97991.66;5113565;28;20255;-68
2022/04/02 03:59:24;;;;;;;11.77;5.67;;;;;;;12.71;92.54;97981.84;5112702;28;20190;-68
2022/04/02 04:01:51;;;;;;;11.57;5.67;;;;;;;12.75;92.30;97993.59;5112833;28;20191;-69
2022/04/02 04:04:18;;;;;;;7.73;5.50;;;;;;;12.75;91.53;98000.78;5112510;28;20222;-68
2022/04/02 04:06:45;;;;;;;6.00;5.40;;;;;;;12.68;93.04;98002.81;5112562;28;20244;-69
2022/04/02 04:09:12;;;;;;;10.03;5.53;;;;;;;12.65;92.55;98013.94;5112515;28;20662;-67
2022/04/02 04:11:39;;;;;;;16.73;6.10;;;;;;;12.60;92.14;98013.88;5112808;28;20191;-67
2022/04/02 04:14:07;;;;;;;8.33;5.37;;;;;;;12.53;92.57;98015.94;5112392;28;20203;-69
2022/04/02 04:16:34;;;;;;;10.73;6.40;;;;;;;12.50;93.25;98017.19;5112500;28;20255;-68
2022/04/02 04:19:00;;;;;;;7.07;5.67;;;;;;;12.52;93.64;98033.75;5112570;28;20208;-67
2022/04/02 04:21:27;;;;;;;12.83;6.37;;;;;;;12.57;94.15;98028.50;5112216;28;20637;-67
2022/04/02 04:23:54;;;;;;;12.50;6.87;;;;;;;12.72;93.93;98046.56;5113056;28;20762;-69
2022/04/02 04:26:21;;;;;;;10.50;6.43;;;;;;;12.88;94.09;98043.88;5112629;28;20189;-67
2022/04/02 04:28:48;;;;;;;7.23;6.53;;;;;;;13.18;91.40;98038.97;5112576;28;20187;-67
2022/04/02 04:31:17;;;;;;;8.80;5.60;;;;;;;13.53;91.42;98036.72;5112611;28;20266;-67
2022/04/02 04:33:44;;;;;;;13.63;6.17;;;;;;;13.92;88.39;98043.53;5113059;28;20195;-67
2022/04/02 04:36:11;;;;;;;6.67;6.03;;;;;;;14.33;86.92;98037.50;5112152;28;20569;-68
2022/04/02 04:38:38;;;;;;;8.70;5.97;;;;;;;14.80;84.88;98041.06;5113258;28;20194;-68
2022/04/02 04:41:05;;;;;;;9.63;5.53;;;;;;;15.12;82.63;98039.09;5112503;28;20194;-68
2022/04/02 04:43:32;;;;;;;11.90;6.03;;;;;;;15.42;79.51;98049.16;5112036;28;20214;-67
2022/04/02 04:45:59;;;;;;;20.00;8.40;;;;;;;15.57;78.46;98058.03;5112109;28;20671;-68
2022/04/02 04:48:27;;;;;;;17.23;7.47;;;;;;;15.88;78.30;98059.75;5112387;28;20206;-69
2022/04/02 04:50:54;;;;;;;6.67;5.97;;;;;;;16.23;76.82;98060.88;5112048;28;20711;-69
2022/04/02 04:53:20;;;;;;;8.87;6.33;;;;;;;16.75;75.58;98064.13;5113172;28;20271;-68
2022/04/02 04:55:47;;;;;;;7.93;5.97;;;;;;;17.60;72.87;98077.34;5112352;28;20192;-70
2022/04/02 04:58:14;;;;;;;8.13;6.10;;;;;;;18.15;69.52;98090.47;5111857;28;20206;-70
2022/04/02 05:00:41;;;;;;;11.07;6.70;;;;;;;18.49;68.84;98080.56;5112018;28;20193;-70
2022/04/02 05:03:09;;;;;;;10.23;5.70;;;;;;;19.05;67.41;98089.78;5112178;28;20217;-71
2022/04/02 05:05:38;;;;;;;8.87;6.00;;;;;;;19.14;65.13;98093.44;5112286;28;20195;-71
2022/04/02 05:08:05;;;;;;;11.37;6.20;;;;;;;18.90;65.33;98088.03;5113020;28;20186;-71
2022/04/02 05:10:33;;;;;;;11.23;6.23;;;;;;;19.06;67.23;98083.28;5111934;28;20195;-71
2022/04/02 05:13:00;;;;;;;16.90;7.10;;;;;;;19.65;65.48;98084.53;5114758;28;20187;-73
2022/04/02 05:15:26;;;;;;;14.07;6.40;;;;;;;20.01;64.08;98096.47;5116295;28;20561;-72
2022/04/02 05:17:54;;;;;;;15.47;8.80;;;;;;;20.48;62.35;98093.66;5116008;28;20212;-71
2022/04/02 05:20:21;;;;;;;11.40;7.40;;;;;;;21.13;59.68;98115.28;5115963;28;20193;-72
2022/04/02 05:22:49;;;;;;;10.57;7.33;;;;;;;21.36;58.28;98111.63;5115932;28;20233;-73
2022/04/02 05:25:16;;;;;;;8.23;5.90;;;;;;;21.49;56.45;98119.75;5115535;28;20771;-72
2022/04/02 05:27:43;;;;;;;14.37;7.53;;;;;;;21.45;56.71;98118.75;5115832;28;20191;-73
2022/04/02 05:30:12;;;;;;;12.07;7.17;;;;;;;21.07;56.60;98128.06;5115519;28;20198;-72
2022/04/02 05:32:39;;;;;;;14.57;7.70;;;;;;;21.19;57.66;98106.78;5115795;28;20199;-73
2022/04/02 05:35:06;;;;;;;11.70;5.70;;;;;;;22.13;53.53;98130.34;5115668;28;20194;-72
2022/04/02 05:37:33;;;;;;;7.77;6.50;;;;;;;22.91;51.04;98133.41;5115392;28;20675;-72
2022/04/02 05:40:01;;;;;;;11.83;7.03;;;;;;;23.35;49.36;98136.09;5115227;28;20575;-72
2022/04/02 05:42:28;;;;;;;11.17;6.77;;;;;;;23.56;48.86;98142.59;5115217;28;20671;-73
2022/04/02 05:44:56;;;;;;;13.67;6.50;;;;;;;22.90;50.44;98133.72;5115479;28;20214;-74
2022/04/02 05:47:23;;;;;;;10.33;5.40;;;;;;;22.47;51.22;98141.53;5116297;28;20201;-73
2022/04/02 05:49:51;;;;;;;7.83;4.70;;;;;;;23.49;47.65;98146.88;5115426;28;20228;-73
2022/04/02 05:52:17;;;;;;;12.87;9.57;;;;;;;23.73;46.59;98134.50;5115939;28;20191;-74
2022/04/02 05:54:45;;;;;;;8.00;5.43;;;;;;;24.33;45.04;98151.78;5116017;28;20255;-73
2022/04/02 05:57:13;;;;;;;10.03;6.40;;;;;;;24.26;44.36;98154.16;5114913;28;20194;-73
2022/04/02 05:59:40;;;;;;;11.23;7.47;;;;;;;24.68;44.96;98152.63;5114910;28;20673;-75
2022/04/02 06:02:08;;;;;;;20.63;12.37;;;;;;;24.99;46.62;98137.75;5116747;27;20623;-75
2022/04/02 06:04:35;;;;;;;33.17;21.20;;;;;;;25.18;44.79;98140.13;5135178;27;20631;-75
2022/04/02 06:07:02;;;;;;;12.00;6.37;;;;;;;25.25;43.33;98140.44;5135102;27;20756;-75
2022/04/02 06:09:28;;;;;;;10.80;6.23;;;;;;;25.40;41.67;98148.09;5135821;27;20250;-74
2022/04/02 06:11:55;;;;;;;8.10;5.70;;;;;;;24.87;43.47;98144.97;5135373;27;20260;-75
2022/04/02 06:14:23;;;;;;;14.70;6.67;;;;;;;25.35;43.87;98144.75;5135531;27;20235;-75
2022/04/02 06:16:50;;;;;;;9.47;6.50;;;;;;;25.28;42.43;98139.81;5135151;27;20199;-75
2022/04/02 06:19:17;;;;;;;11.70;6.63;;;;;;;25.12;43.84;98138.69;5134885;27;20193;-75
2022/04/02 06:21:44;;;;;;;14.57;7.23;;;;;;;25.38;41.93;98138.66;5135318;27;20193;-74
2022/04/02 06:24:11;;;;;;;14.17;6.47;;;;;;;24.90;43.69;98139.69;5134831;27;20225;-74
2022/04/02 06:26:37;;;;;;;11.77;6.73;;;;;;;25.07;42.87;98146.22;5135221;27;20261;-74
2022/04/02 06:29:04;;;;;;;13.63;6.07;;;;;;;25.25;41.24;98134.19;5135071;27;20255;-75
2022/04/02 06:31:32;;;;;;;13.40;7.60;;;;;;;25.17;43.75;98137.72;5134715;27;20199;-75
2022/04/02 06:33:59;;;;;;;17.27;8.13;;;;;;;25.40;42.82;98147.31;5134986;27;20201;-75
2022/04/02 06:36:26;;;;;;;13.37;8.10;;;;;;;25.40;43.70;98136.41;5134647;27;20193;-74
2022/04/02 06:38:53;;;;;;;15.30;7.57;;;;;;;25.19;43.89;98136.28;5134901;27;20199;-73
2022/04/02 06:41:20;;;;;;;13.80;7.37;;;;;;;25.54;41.77;98145.97;5134625;27;20197;-74
2022/04/02 06:43:46;;;;;;;7.20;6.50;;;;;;;25.73;40.16;98145.56;5134399;27;20220;-74
2022/04/02 06:46:13;;;;;;;17.73;7.13;;;;;;;26.04;40.46;98143.38;5134520;27;20194;-75
2022/04/02 06:48:41;;;;;;;14.00;8.13;;;;;;;26.12;39.35;98153.41;5134926;27;20194;-74
2022/04/02 06:51:08;;;;;;;11.50;5.33;;;;;;;25.88;39.47;98153.19;5135182;27;20194;-68
2022/04/02 06:53:35;;;;;;;10.80;6.00;;;;;;;25.81;40.25;98142.03;5134235;27;20197;-75
2022/04/02 06:56:02;;;;;;;16.77;5.67;;;;;;;25.91;39.63;98141.63;5134306;27;20197;-73
2022/04/02 06:58:32;;;;;;;12.27;5.50;;;;;;;26.34;38.06;98139.50;5134425;27;20190;-74
2022/04/02 07:00:59;;;;;;;10.83;5.30;;;;;;;26.49;37.69;98122.56;5134996;27;20239;-74
2022/04/02 07:03:26;;;;;;;13.10;5.17;;;;;;;26.61;36.75;98136.28;5134211;27;20231;-75
2022/04/02 07:05:54;;;;;;;6.57;3.30;;;;;;;26.06;33.58;98149.28;5134118;27;20212;-75
2022/04/02 07:08:21;;;;;;;5.53;3.00;;;;;;;26.18;34.54;98136.56;5133957;27;20198;-75
2022/04/02 07:10:48;;;;;;;4.90;3.40;;;;;;;26.60;35.48;98131.97;5133886;27;20666;-75
2022/04/02 07:13:15;;;;;;;5.87;3.43;;;;;;;26.96;34.39;98132.13;5134447;27;20270;-75
2022/04/02 07:15:42;;;;;;;8.37;3.50;;;;;;;27.10;34.31;98129.91;5134199;27;20194;-75
2022/04/02 07:18:11;;;;;;;4.37;2.20;;;;;;;27.45;32.83;98136.63;5134559;27;20198;-72
2022/04/02 07:20:39;;;;;;;3.50;3.17;;;;;;;27.78;32.68;98137.34;5134079;27;20198;-76
2022/04/02 07:23:09;;;;;;;10.47;3.37;;;;;;;27.87;32.51;98136.13;5133870;27;20274;-75
2022/04/02 07:25:38;;;;;;;6.97;3.80;;;;;;;27.55;33.90;98141.63;5133713;27;20755;-75
2022/04/02 07:28:07;;;;;;;12.07;3.97;;;;;;;27.38;35.62;98150.00;5133584;27;20636;-75
2022/04/02 07:30:35;;;;;;;6.87;3.50;;;;;;;27.43;36.05;98139.69;5134802;27;20186;-71
2022/04/02 07:33:02;;;;;;;7.77;4.40;;;;;;;27.54;36.15;98154.50;5133656;27;20190;-76
2022/04/02 07:35:35;;;;;;;5.03;3.20;;;;;;;26.79;35.04;98143.19;5132965;27;20194;-74
2022/04/02 07:38:04;;;;;;;5.73;3.07;;;;;;;26.39;34.30;98147.47;5133491;27;20238;-72
2022/04/02 07:40:38;;;;;;;5.47;3.33;;;;;;;26.40;35.06;98149.06;5133253;27;20247;-71
2022/04/02 07:43:15;;;;;;;11.90;3.17;;;;;;;26.89;35.88;98153.66;5134072;27;20181;-76
2022/04/02 07:45:45;;;;;;;6.03;3.37;;;;;;;27.13;34.18;98157.31;5133818;27;20205;-75
2022/04/02 07:48:12;;;;;;;3.57;2.33;;;;;;;26.65;34.02;98165.25;5134579;27;20533;-75
2022/04/02 07:50:43;;;;;;;4.27;2.30;;;;;;;26.17;33.58;98167.63;5133855;27;20270;-75
2022/04/02 07:53:19;;;;;;;3.00;2.07;;;;;;;26.24;35.28;98161.66;5133254;27;20178;-75
2022/04/02 07:55:51;;;;;;;4.03;2.10;;;;;;;26.09;33.67;98170.41;5134136;27;20267;-72
2022/04/02 07:58:24;;;;;;;4.50;2.30;;;;;;;26.45;35.60;98162.50;5133739;27;20565;-75
2022/04/02 08:00:56;;;;;;;22.30;2.93;;;;;;;26.82;33.56;98173.28;5133164;27;20216;-75
2022/04/02 08:03:24;;;;;;;3.10;2.10;;;;;;;26.99;32.98;98164.19;5132991;27;20182;-74
2022/04/02 08:05:55;;;;;;;11.40;2.50;;;;;;;27.01;33.34;98160.00;5132939;27;20230;-73
2022/04/02 08:08:24;;;;;;;8.10;2.23;;;;;;;26.76;32.38;98157.47;5132967;27;20197;-75
2022/04/02 08:10:54;;;;;;;11.10;2.17;;;;;;;26.71;32.91;98158.47;5133102;27;20202;-74
2022/04/02 08:13:22;;;;;;;9.67;2.03;;;;;;;26.68;33.16;98158.34;5133002;27;20186;-74
2022/04/02 08:15:54;;;;;;;4.17;1.63;;;;;;;26.88;32.59;98143.91;5133322;27;20251;-74
2022/04/02 08:18:26;;;;;;;32.37;3.50;;;;;;;27.31;33.12;98149.78;5133657;27;20181;-74
2022/04/02 08:20:54;;;;;;;5.30;1.60;;;;;;;27.46;29.90;98160.84;5132852;27;20182;-75
2022/04/02 08:23:21;;;;;;;38.60;3.90;;;;;;;27.34;29.56;98158.09;5132670;27;20232;-75
2022/04/02 08:25:56;;;;;;;10.10;2.87;;;;;;;26.32;29.28;98158.09;5132532;27;20771;-75
2022/04/02 08:28:28;;;;;;;25.40;15.07;;;;;;;25.77;30.44;98141.06;5133430;28;20242;-78
2022/04/02 08:31:04;;;;;;;8.27;7.30;;;;;;;25.46;31.28;98144.06;5132974;28;20186;-74
2022/04/02 08:33:43;;;;;;;2.47;1.17;;;;;;;25.14;30.20;98138.38;5132601;28;20278;-74
2022/04/02 08:36:21;;;;;;;2.07;1.97;;;;;;;25.03;29.97;98144.16;5133694;28;20224;-74
2022/04/02 08:38:59;;;;;;;6.57;1.73;;;;;;;25.23;30.56;98131.78;5132422;28;20225;-76
2022/04/02 08:42:09;;;;;;;2.03;1.23;;;;;;;25.50;30.03;98136.88;5132565;28;20290;-75
2022/04/02 08:45:09;;;;;;;6.20;1.33;;;;;;;25.98;29.17;98136.53;5131264;27;20212;-77
2022/04/02 08:48:24;;;;;;;2.23;2.13;;;;;;;25.97;28.24;98134.94;5131911;27;20196;-75
2022/04/02 08:51:06;;;;;;;1.50;1.40;;;;;;;26.29;28.65;98126.09;5134824;27;20258;-75
2022/04/02 08:53:50;;;;;;;1.53;1.43;;;;;;;26.73;27.58;98136.34;5135006;27;20186;-76
2022/04/02 08:56:22;;;;;;;3.67;1.20;;;;;;;27.12;26.35;98138.56;5134668;27;20182;-76
2022/04/02 08:59:04;;;;;;;2.07;1.03;;;;;;;27.60;26.74;98122.34;5136014;27;20185;-73
2022/04/02 09:01:40;;;;;;;5.90;1.57;;;;;;;27.91;27.18;98122.59;5134674;27;20193;-75
2022/04/02 09:04:40;;;;;;;1.20;1.10;;;;;;;27.35;25.46;98117.94;5136575;27;20235;-75
2022/04/02 09:07:47;;;;;;;2.57;1.07;;;;;;;27.54;25.54;98118.22;5137495;27;20182;-75
2022/04/02 09:10:42;;;;;;;8.73;1.70;;;;;;;27.50;26.82;98106.38;5136722;27;20178;-74
2022/04/02 09:13:47;;;;;;;0.93;0.93;;;;;;;27.29;25.68;98105.69;5134822;27;20757;-75
2022/04/02 09:16:22;;;;;;;1.80;1.00;;;;;;;27.38;26.00;98099.00;5136267;27;20673;-75
2022/04/02 09:19:13;;;;;;;11.53;1.57;;;;;;;27.31;25.41;98097.97;5136279;27;20234;-74
2022/04/02 09:22:04;;;;;;;0.70;0.70;;;;;;;27.53;25.80;98097.53;5136779;27;20193;-74
2022/04/02 09:24:57;;;;;;;1.70;0.97;;;;;;;27.52;25.43;98087.75;5136979;27;20263;-74
2022/04/02 09:28:09;;;;;;;4.13;3.73;;;;;;;26.93;25.74;98081.00;5127299;27;20190;-74
2022/04/02 09:31:15;;;;;;;5.33;1.70;;;;;;;26.59;26.71;98082.16;5113280;28;20225;-75
2022/04/02 09:34:16;;;;;;;1.70;1.00;;;;;;;26.91;25.40;98077.84;5135923;27;20542;-75
2022/04/02 09:36:59;;;;;;;3.40;1.13;;;;;;;26.91;25.01;98078.63;5135476;27;20197;-74
2022/04/02 09:39:45;;;;;;;1.30;1.20;;;;;;;27.14;26.52;98077.09;5136192;27;20269;-69
2022/04/02 09:42:30;;;;;;;4.70;1.17;;;;;;;27.29;26.28;98081.13;5136283;27;20182;-75
2022/04/02 09:45:03;;;;;;;3.97;1.20;;;;;;;27.19;25.90;98084.28;5135709;27;20202;-75
2022/04/02 09:48:06;;;;;;;4.37;1.30;;;;;;;27.07;26.47;98082.31;5135842;27;20182;-75
2022/04/02 09:50:33;;;;;;;1.20;1.20;;;;;;;27.27;27.03;98080.69;5134300;27;20192;-75
2022/04/02 09:53:24;;;;;;;1.07;1.07;;;;;;;27.49;25.46;98088.44;5135455;27;20201;-74
2022/04/02 09:56:12;;;;;;;12.63;1.97;;;;;;;27.54;25.67;98090.94;5135342;27;20636;-75
2022/04/02 09:59:19;;;;;;;1.37;1.27;;;;;;;27.53;24.53;98083.91;5134254;27;20246;-74
2022/04/02 10:01:56;;;;;;;1.27;1.13;;;;;;;27.58;24.33;98061.84;5095455;28;20206;-75
2022/04/02 10:04:43;;;;;;;7.07;1.60;;;;;;;27.96;24.10;98076.75;5133205;27;20226;-75
2022/04/02 10:07:26;;;;;;;3.73;1.40;;;;;;;28.08;23.47;98079.47;5135076;27;20666;-75
2022/04/02 10:09:56;;;;;;;1.60;0.90;;;;;;;28.09;23.82;98081.06;5135684;27;20194;-74
2022/04/02 10:12:28;;;;;;;3.40;1.40;;;;;;;28.22;23.92;98074.41;5134836;27;20193;-74
2022/04/02 10:14:58;;;;;;;9.47;1.77;;;;;;;28.32;24.08;98079.41;5135418;27;20190;-75
2022/04/02 10:17:28;;;;;;;24.73;2.57;;;;;;;28.03;24.36;98063.31;5135117;27;20582;-75
2022/04/02 10:19:56;;;;;;;8.37;1.43;;;;;;;27.73;25.63;98066.63;5134449;27;20254;-75
2022/04/02 10:22:36;;;;;;;0.90;0.90;;;;;;;27.29;25.77;98067.50;5135154;27;20283;-74
2022/04/02 10:25:07;;;;;;;3.10;1.60;;;;;;;26.92;25.76;98061.16;5135352;27;20209;-74
2022/04/02 10:27:36;;;;;;;2.33;1.30;;;;;;;26.82;25.56;98052.59;5135669;27;20182;-74
2022/04/02 10:30:07;;;;;;;3.33;2.43;;;;;;;26.52;26.75;98056.53;5134550;27;20235;-75
2022/04/02 10:32:50;;;;;;;4.87;2.33;;;;;;;26.37;27.56;98047.03;5134619;27;20218;-72
2022/04/02 10:35:18;;;;;;;2.10;1.67;;;;;;;26.33;27.26;98039.91;5134704;27;20189;-72
2022/04/02 10:37:59;;;;;;;9.13;2.60;;;;;;;26.15;27.01;98038.41;5135154;27;20243;-72
2022/04/02 10:40:28;;;;;;;3.70;1.40;;;;;;;26.24;26.91;98041.88;5134741;27;20190;-72
2022/04/02 10:43:02;;;;;;;4.70;3.47;;;;;;;26.26;26.46;98040.44;5134807;27;20194;-72
2022/04/02 10:45:30;;;;;;;5.03;1.33;;;;;;;26.26;26.56;98039.63;5134765;27;20270;-72
2022/04/02 10:48:08;;;;;;;8.00;6.03;;;;;;;26.22;26.69;98033.25;5134708;27;20190;-72
2022/04/02 10:50:39;;;;;;;19.77;10.90;;;;;;;26.25;27.27;98027.16;5135222;27;20186;-72
2022/04/02 10:53:07;;;;;;;4.97;2.43;;;;;;;26.24;27.53;98022.81;5134867;27;20274;-72
2022/04/02 10:55:39;;;;;;;6.30;2.53;;;;;;;26.01;27.18;98021.56;5135241;27;20627;-72
2022/04/02 10:58:12;;;;;;;2.37;1.40;;;;;;;25.91;26.54;98016.47;5135218;27;20182;-72
2022/04/02 11:00:44;;;;;;;9.27;2.23;;;;;;;25.90;26.83;98014.88;5134082;27;20182;-73
2022/04/02 11:03:20;;;;;;;7.67;5.40;;;;;;;25.90;26.74;98014.88;5134596;27;20182;-73
2022/04/02 11:05:47;;;;;;;23.13;2.83;;;;;;;25.87;26.33;98012.81;5134971;27;20206;-74
2022/04/02 11:08:14;;;;;;;16.47;2.13;;;;;;;25.78;27.74;98017.53;5135187;27;20189;-74
2022/04/02 11:10:48;;;;;;;2.27;1.03;;;;;;;25.55;27.11;98008.09;5133791;27;20194;-72
2022/04/02 11:13:29;;;;;;;4.60;1.90;;;;;;;25.57;28.26;98005.81;5134561;27;20208;-72
2022/04/02 11:15:57;;;;;;;8.53;6.67;;;;;;;25.59;28.58;98009.03;5134379;27;20196;-71
2022/04/02 11:18:24;;;;;;;1.80;1.50;;;;;;;25.41;27.82;98024.63;5133852;27;20225;-72
2022/04/02 11:20:55;;;;;;;7.80;2.47;;;;;;;25.34;28.79;98018.09;5133963;27;20193;-71
2022/04/02 11:23:35;;;;;;;1.63;1.53;;;;;;;24.74;28.24;98021.78;5134124;27;20285;-70
2022/04/02 11:26:04;;;;;;;1.53;1.40;;;;;;;24.61;28.75;98028.22;5134459;27;20205;-71
2022/04/02 11:28:44;;;;;;;8.73;1.93;;;;;;;24.39;29.15;98020.19;5133953;27;20199;-71
2022/04/02 11:31:13;;;;;;;21.07;2.53;;;;;;;23.75;25.48;98015.69;5134039;27;20275;-74
2022/04/02 11:33:51;;;;;;;3.40;1.23;;;;;;;23.56;27.41;97998.91;5133812;27;20225;-73
2022/04/02 11:36:22;;;;;;;3.20;0.80;;;;;;;23.25;26.33;98017.16;5133646;27;20237;-73
2022/04/02 11:38:53;;;;;;;2.83;0.77;;;;;;;22.89;25.29;98005.66;5133752;27;20187;-73
2022/04/02 11:41:21;;;;;;;103.67;7.13;;;;;;;22.65;25.24;98018.75;5133643;27;20194;-74
2022/04/02 11:43:52;;;;;;;8.27;1.17;;;;;;;22.58;25.36;98017.59;5133934;27;20645;-73
2022/04/02 11:46:21;;;;;;;2.63;0.90;;;;;;;22.48;25.95;98015.94;5133259;27;20298;-74
2022/04/02 11:48:54;;;;;;;6.40;1.10;;;;;;;22.61;26.29;98006.94;5133139;27;20198;-74